Time;durP1;ratioP1;P1;durP2;ratioP2;P2;SDS_P1;SDS_P2;PMS_P1;PMS_P2;Temp;Humidity;BMP_temperature;BMP_pressure;BME280_temperature;BME280_humidity;BME280_pressure;Samples;Min_cycle;Max_cycle;Signal;HPM_P1;HPM_P2
2022/05/23 04:22:37;;;;;;;13.63;8.80;;;;;;;14.19;100.00;99465.94;5110095;27;20177;-77
2022/05/23 04:25:10;;;;;;;13.23;8.45;;;;;;;14.34;100.00;99446.88;5109144;28;20051;-77
2022/05/23 04:27:36;;;;;;;15.80;10.23;;;;;;;14.33;100.00;99427.31;5092168;28;20563;-77
2022/05/23 04:30:04;;;;;;;14.77;8.32;;;;;;;14.26;100.00;99428.41;5092992;28;20071;-76
2022/05/23 04:35:22;;;;;;;15.30;9.02;;;;;;;14.40;100.00;99405.84;5107931;28;20038;-76
2022/05/23 04:37:51;;;;;;;16.08;9.25;;;;;;;14.28;100.00;99410.25;5107957;28;20047;-76
2022/05/23 04:40:26;;;;;;;19.90;8.95;;;;;;;14.19;100.00;99409.72;5107855;28;20105;-76
2022/05/23 04:42:51;;;;;;;13.10;8.88;;;;;;;14.28;100.00;99404.91;5107549;28;20066;-76
2022/05/23 04:45:18;;;;;;;14.05;9.27;;;;;;;14.33;100.00;99413.09;5107689;28;20151;-76
2022/05/23 04:50:37;;;;;;;13.93;8.65;;;;;;;14.24;100.00;99390.31;5108926;28;20089;-75
2022/05/23 04:53:05;;;;;;;13.65;8.07;;;;;;;14.33;100.00;99322.84;5107129;28;20484;-75
2022/05/23 04:55:41;;;;;;;12.25;8.23;;;;;;;14.37;100.00;99291.09;5091788;28;20043;-75
2022/05/23 04:58:08;;;;;;;17.52;8.18;;;;;;;14.42;100.00;99252.94;5107605;28;20040;-76
2022/05/23 05:00:34;;;;;;;10.10;7.63;;;;;;;14.40;100.00;99256.63;5107337;28;20357;-76
2022/05/23 05:03:02;;;;;;;14.02;8.05;;;;;;;14.45;100.00;99247.13;5107305;28;20459;-76
2022/05/23 05:05:48;;;;;;;12.80;8.95;;;;;;;14.46;100.00;99165.69;5107512;28;20488;-76
2022/05/23 05:08:14;;;;;;;14.43;8.20;;;;;;;14.54;100.00;99142.13;5107350;28;20118;-76
2022/05/23 05:10:43;;;;;;;13.43;7.95;;;;;;;14.56;100.00;99123.97;5107182;28;20111;-75
2022/05/23 05:13:08;;;;;;;11.95;7.80;;;;;;;14.58;100.00;99134.44;5106890;28;20173;-76
2022/05/23 05:15:35;;;;;;;15.27;8.10;;;;;;;14.47;100.00;99159.31;5107045;28;20126;-76
2022/05/23 05:18:01;;;;;;;15.48;8.70;;;;;;;14.53;100.00;99180.66;5107242;28;20311;-76
2022/05/23 05:20:30;;;;;;;11.50;7.97;;;;;;;14.56;100.00;99182.91;5090486;28;20028;-77
2022/05/23 05:22:58;;;;;;;11.18;6.97;;;;;;;14.65;100.00;99149.38;5108585;28;20399;-77
2022/05/23 05:25:56;;;;;;;11.23;6.45;;;;;;;14.73;100.00;99156.28;5104247;28;20048;-78
2022/05/23 05:28:29;;;;;;;10.50;6.50;;;;;;;14.78;100.00;99110.06;5108992;28;20081;-78
2022/05/23 05:31:02;;;;;;;15.18;6.82;;;;;;;14.80;100.00;99060.56;5108919;28;20031;-76
2022/05/23 05:33:36;;;;;;;11.90;7.03;;;;;;;14.83;100.00;99048.53;5096814;28;20047;-77
2022/05/23 05:36:17;;;;;;;11.93;6.68;;;;;;;14.88;100.00;99025.34;5095722;28;20035;-78
2022/05/23 05:39:02;;;;;;;10.55;5.90;;;;;;;15.01;100.00;99023.50;5096113;28;20024;-77
2022/05/23 05:41:48;;;;;;;8.57;5.68;;;;;;;15.04;100.00;99031.09;5077591;28;20401;-74
2022/05/23 05:44:19;;;;;;;9.20;5.03;;;;;;;15.14;100.00;99036.72;5094425;28;20132;-76
2022/05/23 05:46:49;;;;;;;8.20;5.35;;;;;;;15.20;100.00;99025.06;5077441;28;20039;-76
2022/05/23 05:49:25;;;;;;;7.15;4.90;;;;;;;15.31;100.00;99037.63;5093000;28;20034;-76
2022/05/23 05:51:54;;;;;;;6.00;5.22;;;;;;;15.37;100.00;99058.16;5092635;28;20024;-75
2022/05/23 05:54:47;;;;;;;9.73;4.03;;;;;;;15.40;100.00;99068.44;5093026;28;20032;-75
2022/05/23 05:57:14;;;;;;;9.13;5.07;;;;;;;15.52;100.00;99089.91;5076520;28;20040;-77
2022/05/23 05:59:40;;;;;;;6.53;4.78;;;;;;;15.61;100.00;99082.31;5093917;28;20051;-77
2022/05/23 06:02:07;;;;;;;8.40;5.43;;;;;;;15.65;100.00;99078.16;5094338;28;20035;-77
2022/05/23 06:04:35;;;;;;;10.43;5.10;;;;;;;15.65;100.00;99078.97;5094240;28;20496;-77
2022/05/23 06:13:47;;;;;;;8.13;4.28;;;;;;;16.25;94.27;99085.88;5082656;28;20397;-76
2022/05/23 06:16:41;;;;;;;8.23;4.07;;;;;;;16.30;95.76;99091.38;5089712;28;20048;-76
2022/05/23 06:19:27;;;;;;;6.35;4.20;;;;;;;16.41;93.69;99087.00;5093501;28;20048;-76
2022/05/23 06:22:09;;;;;;;7.43;4.40;;;;;;;16.53;94.07;99095.84;5092269;28;20035;-76
2022/05/23 06:24:41;;;;;;;7.70;4.18;;;;;;;16.63;96.24;99104.09;5092874;28;20131;-76
2022/05/23 06:27:08;;;;;;;6.40;4.15;;;;;;;16.74;93.25;99095.19;5093841;28;20132;-76
2022/05/23 06:29:52;;;;;;;7.93;4.55;;;;;;;16.87;93.03;99101.31;5093649;28;20085;-76
2022/05/23 06:32:38;;;;;;;7.25;4.40;;;;;;;17.15;90.82;99101.28;5091939;28;20039;-76
2022/05/23 06:35:14;;;;;;;7.07;3.85;;;;;;;17.37;88.70;99104.06;5091995;28;20122;-76
2022/05/23 06:37:41;;;;;;;7.75;4.85;;;;;;;17.62;88.08;99092.88;5092250;28;20032;-76
2022/05/23 06:40:25;;;;;;;6.25;4.15;;;;;;;17.75;91.52;99095.25;5093597;28;20175;-76
2022/05/23 06:43:09;;;;;;;7.80;4.40;;;;;;;17.81;90.64;99109.63;5093061;28;20054;-77
2022/05/23 06:46:09;;;;;;;6.70;4.57;;;;;;;17.94;91.68;99116.53;5080039;28;20505;-76
2022/05/23 06:49:06;;;;;;;6.45;4.55;;;;;;;18.02;91.30;99125.00;5091769;28;20490;-76
2022/05/23 06:51:43;;;;;;;7.80;4.32;;;;;;;18.07;90.42;99129.63;5091434;28;20067;-76
2022/05/23 06:54:09;;;;;;;11.30;4.88;;;;;;;18.17;94.99;99133.25;5091632;28;20472;-76
2022/05/23 06:56:40;;;;;;;7.72;4.20;;;;;;;18.27;94.82;99137.19;5091523;28;20032;-76
2022/05/23 06:59:07;;;;;;;10.52;5.30;;;;;;;18.29;95.28;99130.47;5091456;28;20040;-77
2022/05/23 07:01:39;;;;;;;7.75;4.28;;;;;;;18.26;92.83;99138.25;5091594;28;20071;-76
2022/05/23 07:04:10;;;;;;;6.60;4.88;;;;;;;18.22;94.01;99129.84;5093069;28;20126;-76
2022/05/23 07:12:27;;;;;;;7.95;4.55;;;;;;;18.09;96.05;99125.63;5091376;28;20487;-77
2022/05/23 07:14:57;;;;;;;8.82;5.20;;;;;;;18.15;96.21;99132.72;5092696;28;20036;-77
2022/05/23 07:17:25;;;;;;;8.93;5.28;;;;;;;18.12;95.90;99130.50;5093238;28;20122;-78
2022/05/23 07:20:05;;;;;;;8.43;4.93;;;;;;;18.23;94.16;99106.38;5092274;28;20055;-77
2022/05/23 07:22:32;;;;;;;9.00;5.05;;;;;;;18.31;95.17;99101.38;5091657;28;20040;-77
2022/05/23 07:24:59;;;;;;;9.50;4.90;;;;;;;18.36;88.69;99103.31;5091730;28;20497;-78
2022/05/23 07:27:27;;;;;;;10.43;4.88;;;;;;;18.42;87.84;99107.69;5090996;28;20044;-77
2022/05/23 07:29:54;;;;;;;10.45;5.25;;;;;;;18.50;89.52;99109.94;5091253;28;20097;-76
2022/05/23 07:32:19;;;;;;;9.13;5.20;;;;;;;18.59;89.29;99099.56;5090784;28;20443;-77
2022/05/23 07:34:45;;;;;;;8.25;5.13;;;;;;;18.62;88.79;99096.34;5092995;28;20086;-77
2022/05/23 07:37:11;;;;;;;8.10;4.82;;;;;;;18.72;88.39;99101.06;5092427;28;20077;-76
2022/05/23 07:39:39;;;;;;;7.90;5.05;;;;;;;18.65;88.65;99083.16;5091151;28;20431;-78
2022/05/23 07:42:31;;;;;;;9.50;5.57;;;;;;;18.60;89.74;99090.38;5090439;28;20044;-76
2022/05/23 07:45:00;;;;;;;9.00;5.88;;;;;;;18.69;89.77;99070.00;5090917;28;20131;-76
2022/05/23 07:47:25;;;;;;;13.65;6.32;;;;;;;18.59;93.57;99083.38;5092004;28;20449;-76
2022/05/23 07:50:15;;;;;;;9.25;5.68;;;;;;;18.74;90.04;99072.75;5091522;28;20463;-77
2022/05/23 08:00:30;;;;;;;11.32;6.13;;;;;;;18.85;90.97;99081.78;5090779;28;20046;-77
2022/05/23 08:00:58;;;;;;;9.75;6.03;;;;;;;19.02;88.86;99062.75;5090888;28;20503;-76
2022/05/23 08:03:25;;;;;;;9.82;6.60;;;;;;;19.10;88.64;99065.78;5091394;28;20040;-76
2022/05/23 08:06:03;;;;;;;9.10;5.53;;;;;;;19.21;88.12;99062.09;5090632;28;20075;-76
2022/05/23 08:08:28;;;;;;;10.10;5.82;;;;;;;19.42;88.68;99051.44;5090439;28;20047;-76
2022/05/23 08:10:54;;;;;;;8.13;5.57;;;;;;;19.45;83.21;99040.16;5090915;28;20032;-76
2022/05/23 08:13:20;;;;;;;9.88;6.00;;;;;;;19.44;83.88;99044.75;5090735;28;20046;-77
2022/05/23 08:15:46;;;;;;;10.25;5.82;;;;;;;19.68;85.26;99034.38;5073591;28;20089;-77
2022/05/23 08:18:16;;;;;;;8.52;5.20;;;;;;;19.86;85.28;99038.50;5074044;28;20032;-76
2022/05/23 08:20:54;;;;;;;12.20;5.75;;;;;;;20.17;86.61;99035.94;5090476;28;20497;-76
2022/05/23 08:23:26;;;;;;;8.45;6.03;;;;;;;20.41;83.80;99042.53;5074131;28;20561;-77
2022/05/23 08:26:10;;;;;;;8.90;5.47;;;;;;;20.53;83.44;99045.00;5090843;28;20063;-77
2022/05/23 08:28:42;;;;;;;12.73;5.60;;;;;;;20.44;81.74;99043.88;5091483;28;20032;-77
2022/05/23 08:31:08;;;;;;;;;;;;;;;20.47;79.52;99051.47;5091412;28;20047;-77
2022/05/23 08:33:41;;;;;;;7.63;4.97;;;;;;;20.68;81.90;99045.03;5091223;28;19916;-77
2022/05/23 08:36:28;;;;;;;9.00;5.03;;;;;;;20.93;82.50;99046.13;5091247;28;20075;-77
2022/05/23 08:38:54;;;;;;;9.35;5.40;;;;;;;20.98;82.54;99048.84;5090197;28;20512;-76
2022/05/23 08:41:41;;;;;;;8.50;5.65;;;;;;;21.01;83.02;99043.72;5089750;28;20097;-77
2022/05/23 08:45:15;;;;;;;6.80;4.63;;;;;;;21.29;80.08;99050.50;5091491;28;20040;-76
2022/05/23 08:47:48;;;;;;;11.55;5.25;;;;;;;21.46;80.18;99057.53;5067643;28;20036;-76
2022/05/23 08:50:22;;;;;;;5.95;4.80;;;;;;;21.63;79.20;99066.97;5090553;28;20060;-76
2022/05/23 08:52:56;;;;;;;12.52;5.47;;;;;;;21.63;77.94;99079.72;5089868;28;20032;-76
2022/05/23 08:55:54;;;;;;;7.88;5.10;;;;;;;21.58;80.29;99077.00;5083366;28;20036;-77
2022/05/23 08:58:27;;;;;;;8.07;5.18;;;;;;;21.82;77.05;99075.34;5092608;28;20401;-77
2022/05/23 09:01:01;;;;;;;9.10;5.03;;;;;;;21.86;78.93;99076.41;5091000;28;20028;-75
2022/05/23 09:03:36;;;;;;;8.77;5.50;;;;;;;22.15;75.88;99086.66;5091378;28;20024;-76
2022/05/23 09:06:06;;;;;;;7.03;4.75;;;;;;;;;;5089736;28;20036;-76
2022/05/23 09:08:53;;;;;;;9.48;5.15;;;;;;;22.34;76.38;99094.97;5094358;28;20439;-76
2022/05/23 09:11:39;;;;;;;6.95;5.13;;;;;;;22.41;76.01;99090.88;5094861;28;20131;-76
2022/05/23 09:14:07;;;;;;;7.82;5.40;;;;;;;22.57;75.77;99093.53;5094867;28;20044;-76
2022/05/23 09:16:46;;;;;;;7.40;4.78;;;;;;;22.48;74.00;99088.66;5095007;28;20469;-76
2022/05/23 09:19:32;;;;;;;6.43;4.45;;;;;;;22.63;74.39;99076.94;5094946;28;20035;-75
2022/05/23 09:22:17;;;;;;;6.97;4.50;;;;;;;22.83;71.82;99086.03;5094593;28;20090;-76
2022/05/23 09:24:46;;;;;;;7.30;4.45;;;;;;;23.09;71.69;99078.56;5093613;28;20141;-76
2022/05/23 09:27:22;;;;;;;9.48;5.32;;;;;;;22.97;68.45;99076.19;5094746;28;20453;-77
2022/05/23 09:29:53;;;;;;;6.78;4.82;;;;;;;23.22;66.67;99067.06;5094643;28;20346;-76
2022/05/23 09:33:02;;;;;;;6.30;4.30;;;;;;;23.42;66.55;99066.88;5094301;28;20127;-76
2022/05/23 09:35:41;;;;;;;6.88;4.53;;;;;;;23.57;67.61;99068.63;5071659;28;20230;-76
2022/05/23 09:38:15;;;;;;;8.32;4.50;;;;;;;23.99;65.04;99062.47;5091591;28;20455;-76
2022/05/23 09:40:56;;;;;;;8.50;4.85;;;;;;;24.21;65.43;99063.88;5093021;28;20032;-76
2022/05/23 09:49:18;;;;;;;6.18;4.60;;;;;;;24.08;64.80;99078.97;5094245;28;20477;-76
2022/05/23 09:51:59;;;;;;;7.82;4.68;;;;;;;23.90;65.82;99071.56;5093955;28;20485;-78
2022/05/23 09:54:35;;;;;;;5.82;4.15;;;;;;;23.75;68.54;99072.56;5094085;28;20043;-76
2022/05/23 09:57:34;;;;;;;6.57;4.72;;;;;;;23.65;68.03;99069.94;5094018;28;20443;-76
2022/05/23 10:00:04;;;;;;;9.35;4.47;;;;;;;23.61;68.38;99067.00;5093654;28;20044;-77
2022/05/23 10:02:41;;;;;;;9.38;5.15;;;;;;;23.68;66.82;99080.25;5093769;28;20065;-76
2022/05/23 10:05:33;;;;;;;6.53;4.93;;;;;;;23.51;70.14;99092.31;5092693;28;20039;-76
2022/05/23 10:08:32;;;;;;;9.57;4.60;;;;;;;23.31;66.38;99097.13;5094402;28;20071;-76
2022/05/23 10:11:03;;;;;;;8.68;4.72;;;;;;;23.09;69.81;99098.38;5094326;28;20107;-77
2022/05/23 10:13:40;;;;;;;9.85;4.95;;;;;;;22.85;68.26;99102.84;5094714;28;20137;-77
2022/05/23 10:16:08;;;;;;;15.13;4.95;;;;;;;22.63;69.77;99114.13;5094756;28;20481;-77
2022/05/23 10:18:44;;;;;;;7.53;4.82;;;;;;;22.63;70.44;99116.84;5095836;28;20468;-77
2022/05/23 10:21:41;;;;;;;6.00;4.80;;;;;;;22.41;71.35;99112.56;5094504;28;20059;-77
2022/05/23 10:24:16;;;;;;;9.05;5.80;;;;;;;22.13;72.55;99099.69;5090314;28;20552;-77
2022/05/23 10:26:55;;;;;;;6.65;5.00;;;;;;;22.03;73.53;99115.94;5092762;28;20093;-78
2022/05/23 10:29:26;;;;;;;6.75;4.60;;;;;;;21.86;75.27;99122.50;5094398;28;20077;-76
2022/05/23 10:32:02;;;;;;;11.13;6.25;;;;;;;21.56;77.34;99142.31;5094612;28;20496;-76
2022/05/23 10:34:52;;;;;;;7.68;5.85;;;;;;;21.25;78.98;99143.34;5095235;28;20081;-77
2022/05/23 10:37:23;;;;;;;9.40;5.93;;;;;;;21.07;81.30;99142.00;5094585;28;20040;-76
2022/05/23 10:42:45;;;;;;;11.20;6.90;;;;;;;20.75;84.17;99193.59;5093983;28;20040;-77
2022/05/23 10:45:39;;;;;;;15.13;9.27;;;;;;;20.25;91.99;99194.94;5095333;28;20039;-79
2022/05/23 10:48:20;;;;;;;19.30;10.15;;;;;;;19.53;98.13;99189.00;5095214;28;20038;-76
2022/05/23 10:50:54;;;;;;;17.02;11.13;;;;;;;19.08;100.00;99159.69;5094571;28;20085;-77
2022/05/23 10:53:32;;;;;;;17.85;9.77;;;;;;;18.57;100.00;99126.75;5093711;28;20138;-76
2022/05/23 10:56:15;;;;;;;14.93;10.70;;;;;;;18.41;100.00;99116.84;5093476;28;20032;-76
2022/05/23 10:59:06;;;;;;;20.35;11.80;;;;;;;18.24;100.00;99126.88;5092380;28;20400;-77
2022/05/23 11:02:07;;;;;;;16.33;11.35;;;;;;;18.22;100.00;99091.28;5092788;28;20592;-75
2022/05/23 11:05:06;;;;;;;18.73;12.10;;;;;;;18.21;100.00;99044.66;5092820;28;20031;-74
2022/05/23 11:07:56;;;;;;;20.95;12.88;;;;;;;18.25;100.00;99010.72;5091419;28;20036;-75
2022/05/23 11:10:40;;;;;;;15.40;9.68;;;;;;;18.28;100.00;98969.81;5093226;28;20028;-76
2022/05/23 11:13:28;;;;;;;15.13;9.38;;;;;;;18.21;100.00;98968.38;5092570;28;20032;-76
2022/05/23 11:16:01;;;;;;;11.05;6.43;;;;;;;18.20;100.00;98997.22;5092692;28;20101;-76
2022/05/23 11:18:45;;;;;;;10.52;6.75;;;;;;;18.18;100.00;99015.50;5092524;28;20047;-76
2022/05/23 11:21:21;;;;;;;11.18;6.28;;;;;;;18.22;100.00;99000.47;5092375;28;20424;-76
2022/05/23 11:23:55;;;;;;;9.38;5.03;;;;;;;18.25;100.00;99002.63;5093005;28;20036;-77
2022/05/23 11:26:27;;;;;;;11.85;5.25;;;;;;;18.36;100.00;99007.09;5095175;28;20067;-78
2022/05/23 11:34:42;;;;;;;12.77;5.13;;;;;;;18.67;97.96;99000.13;5095909;28;20044;-77
2022/05/23 11:37:42;;;;;;;14.85;4.95;;;;;;;18.75;97.46;98988.06;5095113;28;20039;-76
2022/05/23 11:40:01;;;;;;;8.30;4.60;;;;;;;18.87;99.54;98988.72;5094722;28;20062;-77
2022/05/23 11:42:49;;;;;;;10.35;5.05;;;;;;;18.98;97.94;98965.34;5093197;28;20032;-77
2022/05/23 11:48:35;;;;;;;10.73;4.43;;;;;;;19.29;97.11;98954.72;5092964;28;20036;-77
2022/05/23 11:51:17;;;;;;;9.35;3.20;;;;;;;19.38;88.55;98950.47;5092000;28;20458;-77
2022/05/23 11:54:01;;;;;;;8.73;3.83;;;;;;;19.48;92.99;98951.31;5092035;28;20032;-78
2022/05/23 11:56:35;;;;;;;13.27;4.60;;;;;;;19.48;100.00;98942.41;5094103;28;20032;-79
2022/05/23 11:59:02;;;;;;;8.25;4.18;;;;;;;19.48;99.26;98937.81;5093509;28;20032;-79
2022/05/23 12:01:30;;;;;;;8.35;4.38;;;;;;;19.53;96.61;98931.63;5092922;28;20034;-77
2022/05/23 12:03:56;;;;;;;;;;;;;;;19.60;97.08;98921.44;5092255;28;20036;-76
2022/05/23 12:06:24;;;;;;;8.63;4.70;;;;;;;19.64;97.01;98936.03;5091659;28;19947;-77
2022/05/23 12:09:02;;;;;;;8.10;4.25;;;;;;;19.70;94.62;98921.47;5091728;28;20044;-76
2022/05/23 12:11:33;;;;;;;10.70;4.40;;;;;;;19.69;94.08;98917.16;5090262;28;20115;-76
2022/05/23 12:14:24;;;;;;;9.20;4.65;;;;;;;19.79;96.00;98933.38;5091695;28;20040;-77
2022/05/23 12:16:49;;;;;;;9.75;4.40;;;;;;;19.81;98.73;98925.00;5091641;28;20024;-76
2022/05/23 12:19:28;;;;;;;6.80;4.05;;;;;;;19.84;97.15;98923.69;5091668;28;20028;-76
2022/05/23 12:22:17;;;;;;;8.45;5.13;;;;;;;19.74;99.93;98922.56;5091179;28;20042;-76
2022/05/23 12:25:10;;;;;;;8.25;4.35;;;;;;;19.84;97.93;98929.09;5087786;28;20485;-76
2022/05/23 12:27:45;;;;;;;8.80;4.63;;;;;;;19.88;97.66;98917.47;5093008;28;20480;-77
2022/05/23 12:30:17;;;;;;;9.45;5.10;;;;;;;19.95;100.00;98925.31;5090959;28;20043;-77
2022/05/23 12:32:47;;;;;;;12.82;4.95;;;;;;;20.03;99.12;98919.41;5092949;28;20047;-77
2022/05/23 12:35:14;;;;;;;8.07;5.40;;;;;;;20.05;100.00;98917.25;5092660;28;20032;-78
2022/05/23 12:38:17;;;;;;;8.95;5.75;;;;;;;20.19;100.00;98907.53;5092896;28;20403;-77
2022/05/23 12:40:49;;;;;;;13.10;6.47;;;;;;;20.28;99.99;98886.22;5094373;28;20039;-77
2022/05/23 12:43:27;;;;;;;11.70;5.70;;;;;;;20.46;99.92;98885.69;5093568;28;20035;-78
2022/05/23 12:45:52;;;;;;;;;;;;;;;20.55;100.00;98894.91;5098447;28;20107;-79
2022/05/23 12:48:38;;;;;;;7.97;6.07;;;;;;;20.69;96.84;98903.28;5098969;28;20461;-79
2022/05/23 12:51:13;;;;;;;10.53;6.03;;;;;;;20.91;94.58;98907.56;5099899;28;20036;-80
2022/05/23 12:54:00;;;;;;;8.43;5.32;;;;;;;21.28;90.96;98896.41;5097620;28;20647;-77
2022/05/23 12:56:54;;;;;;;12.75;6.22;;;;;;;21.82;94.63;98898.34;5094485;28;20042;-78
2022/05/23 12:59:50;;;;;;;11.35;5.25;;;;;;;22.29;86.59;98894.28;5099679;28;20524;-79
2022/05/23 13:02:28;;;;;;;8.38;4.68;;;;;;;22.78;82.77;98880.59;5095771;28;20035;-78
2022/05/23 13:04:58;;;;;;;10.68;4.68;;;;;;;23.23;83.10;98873.91;5095082;28;20043;-77
2022/05/23 13:07:49;;;;;;;8.88;4.50;;;;;;;23.48;78.36;98869.28;5095844;28;20267;-77
2022/05/23 13:10:27;;;;;;;9.73;4.43;;;;;;;23.30;82.47;98865.41;5090184;28;20084;-76
2022/05/23 13:13:07;;;;;;;9.35;5.07;;;;;;;23.62;78.19;98847.66;5094635;28;20036;-77
2022/05/23 13:15:34;;;;;;;7.68;4.63;;;;;;;23.70;73.52;98844.28;5095372;28;20058;-76
2022/05/23 13:23:36;;;;;;;7.90;5.18;;;;;;;23.87;76.76;98839.16;5094390;28;20038;-75
2022/05/23 13:26:07;;;;;;;8.73;6.07;;;;;;;23.87;79.99;98841.88;5094821;28;20131;-75
2022/05/23 13:28:38;;;;;;;10.27;5.43;;;;;;;24.09;77.67;98844.78;5094864;28;20044;-75
2022/05/23 13:31:06;;;;;;;9.63;5.70;;;;;;;24.00;76.16;98841.13;5094708;28;20028;-75
2022/05/23 13:33:45;;;;;;;12.60;6.28;;;;;;;24.08;79.11;98839.63;5093016;28;20043;-76
2022/05/23 13:36:11;;;;;;;14.02;6.32;;;;;;;24.01;76.53;98831.84;5094681;28;20093;-76
2022/05/23 13:38:43;;;;;;;9.50;5.78;;;;;;;24.06;74.97;98811.91;5094938;28;20031;-75
2022/05/23 13:41:08;;;;;;;12.32;5.75;;;;;;;23.85;78.03;98818.78;5094550;28;20056;-76
2022/05/23 13:43:43;;;;;;;15.27;6.78;;;;;;;23.73;76.72;98809.13;5095064;28;20038;-78
2022/05/23 13:46:17;;;;;;;12.75;6.13;;;;;;;23.57;76.48;98805.00;5097953;28;20035;-76
2022/05/23 13:48:51;;;;;;;12.60;6.43;;;;;;;23.70;75.21;98800.78;5095102;28;20040;-76
2022/05/23 13:51:34;;;;;;;11.13;6.65;;;;;;;23.66;74.67;98813.34;5094527;28;20032;-76
2022/05/23 13:54:06;;;;;;;10.30;6.50;;;;;;;23.73;75.32;98809.13;5093131;28;20028;-77
2022/05/23 13:56:32;;;;;;;12.05;5.78;;;;;;;23.84;75.98;98807.09;5094777;28;20160;-75
2022/05/23 13:59:09;;;;;;;10.45;6.15;;;;;;;23.79;73.89;98809.88;5094679;28;20502;-76
2022/05/23 14:01:55;;;;;;;11.40;6.13;;;;;;;24.03;72.49;98796.19;5094017;28;20504;-76
2022/05/23 14:04:27;;;;;;;14.30;6.07;;;;;;;24.22;72.32;98802.41;5095455;28;20115;-76
2022/05/23 14:06:58;;;;;;;12.40;5.95;;;;;;;24.30;73.43;98787.31;5094291;28;20115;-76
2022/05/23 14:09:27;;;;;;;13.20;5.85;;;;;;;24.32;71.35;98791.38;5095425;28;20497;-76
2022/05/23 14:11:56;;;;;;;10.00;5.38;;;;;;;24.41;72.63;98782.53;5094435;28;20035;-76
2022/05/23 14:14:40;;;;;;;9.15;5.60;;;;;;;24.46;69.21;98779.75;5094879;28;20115;-75
2022/05/23 14:17:08;;;;;;;10.52;5.25;;;;;;;24.61;68.08;98779.44;5093621;28;20028;-74
2022/05/23 14:19:51;;;;;;;14.40;5.53;;;;;;;24.68;66.94;98779.06;5093572;28;20377;-75
2022/05/23 14:22:23;;;;;;;9.75;4.88;;;;;;;24.58;64.95;98777.31;5092928;28;20036;-77
2022/05/23 14:24:52;;;;;;;9.18;4.55;;;;;;;24.70;64.03;98779.56;5093810;28;20082;-76
2022/05/23 14:27:27;;;;;;;10.63;4.93;;;;;;;24.70;65.20;98771.38;5093923;28;20528;-76
2022/05/23 14:30:24;;;;;;;11.20;4.70;;;;;;;24.73;65.02;98782.50;5093539;28;20396;-76
2022/05/23 14:33:03;;;;;;;8.15;4.88;;;;;;;24.71;64.36;98773.78;5093234;28;20047;-76
2022/05/23 14:35:37;;;;;;;12.25;4.55;;;;;;;24.75;61.85;98765.84;5092205;28;20060;-75
2022/05/23 14:38:06;;;;;;;9.13;4.32;;;;;;;24.90;61.69;98769.06;5094226;28;20040;-76
2022/05/23 14:40:39;;;;;;;14.75;4.22;;;;;;;25.01;59.02;98766.94;5092475;28;20070;-76
2022/05/23 14:43:13;;;;;;;9.10;3.70;;;;;;;25.14;56.58;98765.34;5093157;28;20118;-76
2022/05/23 14:45:53;;;;;;;11.40;3.50;;;;;;;25.19;58.30;98759.81;5093813;28;20035;-76
2022/05/23 14:48:31;;;;;;;6.47;3.03;;;;;;;25.26;56.15;98749.28;5093491;28;20066;-77
2022/05/23 14:51:05;;;;;;;11.57;3.83;;;;;;;25.33;56.35;98746.16;5093563;28;20393;-78
2022/05/23 14:56:35;;;;;;;6.68;3.40;;;;;;;25.38;55.40;98743.31;5093402;28;20469;-76
2022/05/23 15:01:46;;;;;;;9.35;3.97;;;;;;;25.52;53.77;98735.91;5092791;28;20040;-76
2022/05/23 15:04:28;;;;;;;10.80;4.45;;;;;;;25.59;53.08;98719.94;5092929;28;20040;-75
2022/05/23 15:06:56;;;;;;;8.48;3.20;;;;;;;25.59;52.90;98725.38;5092366;28;20546;-76
2022/05/23 15:09:22;;;;;;;8.65;3.60;;;;;;;25.58;52.65;98733.88;5093320;28;20390;-77
2022/05/23 15:11:47;;;;;;;9.38;3.65;;;;;;;25.55;52.48;98746.19;5092848;28;20090;-76
2022/05/23 15:14:15;;;;;;;10.02;4.57;;;;;;;25.52;52.59;98740.56;5093560;28;20469;-76
2022/05/23 15:16:42;;;;;;;9.50;4.13;;;;;;;25.49;53.87;98732.97;5093382;28;20418;-76
2022/05/23 15:19:09;;;;;;;8.05;4.18;;;;;;;25.43;55.16;98737.75;5092769;28;20038;-74
2022/05/23 15:21:36;;;;;;;8.90;4.22;;;;;;;25.41;53.89;98735.31;5092740;28;20044;-76
2022/05/23 15:24:01;;;;;;;9.47;3.60;;;;;;;25.38;54.46;98740.59;5091626;28;20550;-76
2022/05/23 15:26:31;;;;;;;5.85;3.65;;;;;;;25.42;53.80;98741.56;5092890;28;20048;-77
2022/05/23 15:28:57;;;;;;;7.25;3.30;;;;;;;25.48;53.72;98736.81;5093311;28;20399;-76
2022/05/23 15:31:25;;;;;;;4.78;3.38;;;;;;;25.48;54.58;98728.66;5094576;28;20035;-79
2022/05/23 15:33:51;;;;;;;8.75;3.78;;;;;;;25.47;54.83;98722.38;5095628;28;20032;-77
2022/05/23 15:36:17;;;;;;;13.75;4.25;;;;;;;25.49;55.96;98713.91;5093637;28;20058;-76
2022/05/23 15:38:43;;;;;;;7.75;3.70;;;;;;;25.51;54.73;98709.78;5092514;28;20079;-76
2022/05/23 15:41:10;;;;;;;7.47;3.85;;;;;;;25.51;54.58;98723.41;5092743;28;20044;-77
2022/05/23 15:43:36;;;;;;;9.27;3.30;;;;;;;25.46;53.42;98712.59;5093961;28;20024;-76
2022/05/23 15:46:06;;;;;;;9.15;3.20;;;;;;;25.33;53.02;98705.28;5075784;28;20791;-76
2022/05/23 15:48:32;;;;;;;8.35;4.07;;;;;;;25.17;53.26;98702.91;5090983;28;20084;-76
2022/05/23 15:50:57;;;;;;;7.68;3.63;;;;;;;25.13;53.96;98703.81;5094819;28;20111;-78
2022/05/23 15:53:23;;;;;;;13.05;4.32;;;;;;;24.96;54.64;98709.06;5092629;28;20540;-78
2022/05/23 15:55:50;;;;;;;8.88;3.65;;;;;;;24.89;55.05;98693.13;5091150;28;20048;-77
2022/05/23 15:58:17;;;;;;;9.93;3.45;;;;;;;24.82;54.93;98707.16;5092284;28;20032;-77
2022/05/23 16:00:43;;;;;;;11.07;3.55;;;;;;;24.68;57.43;98709.06;5093177;28;20119;-77
2022/05/23 16:03:12;;;;;;;9.50;3.70;;;;;;;24.57;57.96;98716.63;5092786;28;20113;-77
2022/05/23 16:05:39;;;;;;;5.63;3.30;;;;;;;24.50;58.23;98707.25;5092767;28;20063;-76
2022/05/23 16:08:05;;;;;;;5.97;3.78;;;;;;;24.44;56.78;98709.25;5093051;28;20434;-77
2022/05/23 16:10:36;;;;;;;7.82;3.78;;;;;;;24.40;56.10;98702.03;5093002;28;20044;-77
2022/05/23 16:13:22;;;;;;;9.30;3.65;;;;;;;24.42;56.88;98691.63;5090899;28;20032;-76
2022/05/23 16:15:54;;;;;;;7.80;3.40;;;;;;;24.37;57.34;98695.25;5092226;28;20112;-76
2022/05/23 16:18:21;;;;;;;7.22;3.40;;;;;;;24.30;57.55;98694.81;5074449;28;20050;-77
2022/05/23 16:20:48;;;;;;;8.45;3.30;;;;;;;24.24;58.12;98685.13;5091167;28;20086;-76
2022/05/23 16:23:13;;;;;;;6.20;3.38;;;;;;;24.19;58.27;98686.06;5092064;28;20445;-76
2022/05/23 16:25:43;;;;;;;9.13;4.05;;;;;;;24.14;58.75;98690.78;5090888;28;20090;-77
2022/05/23 16:28:09;;;;;;;6.47;3.10;;;;;;;24.12;59.04;98692.97;5092151;28;20520;-77
2022/05/23 16:30:38;;;;;;;6.30;3.55;;;;;;;23.97;58.84;98702.22;5091112;23;20041;-78
2022/05/23 16:38:36;;;;;;;5.75;2.88;;;;;;;23.75;59.56;98694.69;5031701;28;20033;-77
2022/05/23 16:41:03;;;;;;;8.48;3.58;;;;;;;23.74;59.09;98703.97;5031317;28;20562;-77
2022/05/23 16:43:29;;;;;;;6.18;3.38;;;;;;;23.68;60.75;98705.94;5031126;28;20071;-75
2022/05/23 16:45:55;;;;;;;7.88;4.20;;;;;;;23.63;60.66;98706.03;5031472;28;20445;-77
2022/05/23 16:48:20;;;;;;;5.65;3.05;;;;;;;23.60;60.68;98703.03;5031413;28;20061;-77
2022/05/23 16:50:47;;;;;;;10.18;3.65;;;;;;;23.58;61.75;98707.97;5031125;28;20385;-76
2022/05/23 16:53:12;;;;;;;6.25;3.72;;;;;;;23.55;61.79;98706.69;5031110;28;20371;-74
2022/05/23 16:55:38;;;;;;;7.72;3.95;;;;;;;23.52;61.69;98699.09;5031382;28;20069;-71
2022/05/23 16:58:04;;;;;;;7.78;4.53;;;;;;;23.51;62.45;98700.19;5031233;28;20044;-74
2022/05/23 17:00:30;;;;;;;7.43;3.95;;;;;;;23.45;62.53;98694.03;5031265;28;20071;-74
2022/05/23 17:02:55;;;;;;;8.50;3.40;;;;;;;23.47;61.78;98696.44;5031030;28;20026;-74
2022/05/23 17:05:24;;;;;;;7.65;3.78;;;;;;;23.51;61.74;98702.91;5030022;28;20045;-74
2022/05/23 17:07:50;;;;;;;6.60;3.47;;;;;;;23.52;61.60;98694.47;5031408;28;20041;-74
2022/05/23 17:10:15;;;;;;;9.63;4.60;;;;;;;23.55;61.99;98688.47;5031319;28;20061;-74
2022/05/23 17:12:41;;;;;;;6.75;3.88;;;;;;;23.53;62.40;98692.56;5031117;28;20038;-73
2022/05/23 17:15:08;;;;;;;7.60;4.10;;;;;;;23.57;62.35;98696.31;5030340;28;20128;-73
2022/05/23 17:17:34;;;;;;;9.43;3.60;;;;;;;23.54;62.54;98695.00;5030040;28;20036;-73
2022/05/23 17:20:00;;;;;;;7.70;4.20;;;;;;;23.50;62.25;98693.97;5031085;28;20053;-73
2022/05/23 17:22:26;;;;;;;8.48;3.97;;;;;;;23.45;62.46;98685.06;5029964;28;20148;-74